sensor_id;sensor_type;location;lat;lon;timestamp;temperature;humidity
13264;DHT22;6700;51.988;7.646;2023-12-28T00:02:18;8.30;99.90
13264;DHT22;6700;51.988;7.646;2023-12-28T00:04:45;8.30;99.90
13264;DHT22;6700;51.988;7.646;2023-12-28T00:07:12;8.20;99.90
13264;DHT22;6700;51.988;7.646;2023-12-28T00:09:39;8.30;99.90
13264;DHT22;6700;51.988;7.646;2023-12-28T00:12:08;8.20;99.90
13264;DHT22;6700;51.988;7.646;2023-12-28T00:14:35;8.20;99.90
13264;DHT22;6700;51.988;7.646;2023-12-28T00:17:02;8.20;99.90
13264;DHT22;6700;51.988;7.646;2023-12-28T00:19:29;8.20;99.90
13264;DHT22;6700;51.988;7.646;2023-12-28T00:21:57;8.20;99.90
13264;DHT22;6700;51.988;7.646;2023-12-28T00:24:24;8.20;99.90
13264;DHT22;6700;51.988;7.646;2023-12-28T00:26:51;8.10;99.90
13264;DHT22;6700;51.988;7.646;2023-12-28T00:29:17;8.10;99.90
13264;DHT22;6700;51.988;7.646;2023-12-28T00:31:44;8.10;99.90
13264;DHT22;6700;51.988;7.646;2023-12-28T00:34:12;8.10;99.90
13264;DHT22;6700;51.988;7.646;2023-12-28T00:36:39;8.00;99.90
13264;DHT22;6700;51.988;7.646;2023-12-28T00:39:07;8.00;99.90
13264;DHT22;6700;51.988;7.646;2023-12-28T00:41:34;8.00;99.90
13264;DHT22;6700;51.988;7.646;2023-12-28T00:44:02;8.00;99.90
13264;DHT22;6700;51.988;7.646;2023-12-28T00:46:29;8.00;99.90
13264;DHT22;6700;51.988;7.646;2023-12-28T00:48:55;8.00;99.90
13264;DHT22;6700;51.988;7.646;2023-12-28T00:51:22;8.00;99.90
13264;DHT22;6700;51.988;7.646;2023-12-28T00:53:49;8.00;99.90
13264;DHT22;6700;51.988;7.646;2023-12-28T00:56:16;8.00;99.90
13264;DHT22;6700;51.988;7.646;2023-12-28T00:58:43;8.00;99.90
13264;DHT22;6700;51.988;7.646;2023-12-28T01:01:10;8.00;99.90
13264;DHT22;6700;51.988;7.646;2023-12-28T01:03:38;8.00;99.90
13264;DHT22;6700;51.988;7.646;2023-12-28T01:06:05;8.00;99.90
13264;DHT22;6700;51.988;7.646;2023-12-28T01:08:34;8.00;99.90
13264;DHT22;6700;51.988;7.646;2023-12-28T01:11:02;8.10;99.90
13264;DHT22;6700;51.988;7.646;2023-12-28T01:13:29;8.10;99.90
13264;DHT22;6700;51.988;7.646;2023-12-28T01:15:57;8.10;99.90
13264;DHT22;6700;51.988;7.646;2023-12-28T01:18:24;8.10;99.90
13264;DHT22;6700;51.988;7.646;2023-12-28T01:20:52;8.00;99.90
13264;DHT22;6700;51.988;7.646;2023-12-28T01:23:18;8.00;99.90
13264;DHT22;6700;51.988;7.646;2023-12-28T01:25:45;8.10;99.90
13264;DHT22;6700;51.988;7.646;2023-12-28T01:28:12;8.10;99.90
13264;DHT22;6700;51.988;7.646;2023-12-28T01:30:39;8.10;99.90
13264;DHT22;6700;51.988;7.646;2023-12-28T01:33:06;8.10;99.90
13264;DHT22;6700;51.988;7.646;2023-12-28T01:35:33;8.10;99.90
13264;DHT22;6700;51.988;7.646;2023-12-28T01:38:00;8.00;99.90
13264;DHT22;6700;51.988;7.646;2023-12-28T01:40:29;8.10;99.90
13264;DHT22;6700;51.988;7.646;2023-12-28T01:42:57;8.00;99.90
13264;DHT22;6700;51.988;7.646;2023-12-28T01:45:24;8.00;99.90
13264;DHT22;6700;51.988;7.646;2023-12-28T01:47:52;8.00;99.90
13264;DHT22;6700;51.988;7.646;2023-12-28T01:50:21;8.00;99.90
13264;DHT22;6700;51.988;7.646;2023-12-28T01:52:50;8.10;99.90
13264;DHT22;6700;51.988;7.646;2023-12-28T01:55:17;8.10;99.90
13264;DHT22;6700;51.988;7.646;2023-12-28T01:57:44;8.00;99.90
13264;DHT22;6700;51.988;7.646;2023-12-28T02:00:12;8.00;99.90
13264;DHT22;6700;51.988;7.646;2023-12-28T02:02:41;8.10;99.90
13264;DHT22;6700;51.988;7.646;2023-12-28T02:05:10;8.10;99.90
13264;DHT22;6700;51.988;7.646;2023-12-28T02:07:40;8.10;99.90
13264;DHT22;6700;51.988;7.646;2023-12-28T02:10:07;8.10;99.90
13264;DHT22;6700;51.988;7.646;2023-12-28T02:12:34;8.20;99.90
13264;DHT22;6700;51.988;7.646;2023-12-28T02:15:01;8.10;99.90
13264;DHT22;6700;51.988;7.646;2023-12-28T02:17:38;8.10;99.90
13264;DHT22;6700;51.988;7.646;2023-12-28T02:20:10;8.10;99.90
13264;DHT22;6700;51.988;7.646;2023-12-28T02:22:38;8.20;99.90
13264;DHT22;6700;51.988;7.646;2023-12-28T02:27:54;8.20;99.90
13264;DHT22;6700;51.988;7.646;2023-12-28T02:30:22;8.10;99.90
13264;DHT22;6700;51.988;7.646;2023-12-28T02:32:54;8.10;99.90
13264;DHT22;6700;51.988;7.646;2023-12-28T02:35:31;8.20;99.90
13264;DHT22;6700;51.988;7.646;2023-12-28T02:38:04;8.10;99.90
13264;DHT22;6700;51.988;7.646;2023-12-28T02:40:36;8.10;99.90
13264;DHT22;6700;51.988;7.646;2023-12-28T02:43:07;8.10;99.90
13264;DHT22;6700;51.988;7.646;2023-12-28T02:45:34;8.10;99.90
13264;DHT22;6700;51.988;7.646;2023-12-28T02:48:02;8.20;99.90
13264;DHT22;6700;51.988;7.646;2023-12-28T02:50:31;8.20;99.90
13264;DHT22;6700;51.988;7.646;2023-12-28T02:52:58;8.30;99.90
13264;DHT22;6700;51.988;7.646;2023-12-28T02:55:25;8.30;99.90
13264;DHT22;6700;51.988;7.646;2023-12-28T02:57:55;8.20;99.90
13264;DHT22;6700;51.988;7.646;2023-12-28T03:00:23;8.30;99.90
13264;DHT22;6700;51.988;7.646;2023-12-28T03:02:50;8.30;99.90
13264;DHT22;6700;51.988;7.646;2023-12-28T03:05:17;8.30;99.90
13264;DHT22;6700;51.988;7.646;2023-12-28T03:07:45;8.40;99.90
13264;DHT22;6700;51.988;7.646;2023-12-28T03:10:12;8.40;99.90
13264;DHT22;6700;51.988;7.646;2023-12-28T03:12:40;8.40;99.90
13264;DHT22;6700;51.988;7.646;2023-12-28T03:15:07;8.50;99.90
13264;DHT22;6700;51.988;7.646;2023-12-28T03:17:34;8.40;99.90
13264;DHT22;6700;51.988;7.646;2023-12-28T03:20:03;8.40;99.90
13264;DHT22;6700;51.988;7.646;2023-12-28T03:22:30;8.50;99.90
13264;DHT22;6700;51.988;7.646;2023-12-28T03:24:57;8.50;99.90
13264;DHT22;6700;51.988;7.646;2023-12-28T03:27:24;8.50;99.90
13264;DHT22;6700;51.988;7.646;2023-12-28T03:29:51;8.60;99.90
13264;DHT22;6700;51.988;7.646;2023-12-28T03:32:18;8.60;99.90
13264;DHT22;6700;51.988;7.646;2023-12-28T03:34:45;8.70;99.90
13264;DHT22;6700;51.988;7.646;2023-12-28T03:37:11;8.70;99.90
13264;DHT22;6700;51.988;7.646;2023-12-28T03:39:38;8.70;99.90
13264;DHT22;6700;51.988;7.646;2023-12-28T03:42:05;8.70;99.90
13264;DHT22;6700;51.988;7.646;2023-12-28T03:44:32;8.70;99.90
13264;DHT22;6700;51.988;7.646;2023-12-28T03:46:59;8.70;99.90
13264;DHT22;6700;51.988;7.646;2023-12-28T03:49:26;8.70;99.90
13264;DHT22;6700;51.988;7.646;2023-12-28T03:51:53;8.70;99.90
13264;DHT22;6700;51.988;7.646;2023-12-28T03:54:20;8.70;99.90
13264;DHT22;6700;51.988;7.646;2023-12-28T03:56:47;8.70;99.90
13264;DHT22;6700;51.988;7.646;2023-12-28T03:59:15;8.70;99.90
13264;DHT22;6700;51.988;7.646;2023-12-28T04:01:42;8.70;99.90
13264;DHT22;6700;51.988;7.646;2023-12-28T04:04:10;8.70;99.90
13264;DHT22;6700;51.988;7.646;2023-12-28T04:06:37;8.70;99.90
13264;DHT22;6700;51.988;7.646;2023-12-28T04:09:06;8.70;99.90
13264;DHT22;6700;51.988;7.646;2023-12-28T04:11:33;8.70;99.90
13264;DHT22;6700;51.988;7.646;2023-12-28T04:14:00;8.70;99.90
13264;DHT22;6700;51.988;7.646;2023-12-28T04:16:26;8.70;99.90
13264;DHT22;6700;51.988;7.646;2023-12-28T04:18:53;8.70;99.90
13264;DHT22;6700;51.988;7.646;2023-12-28T04:21:20;8.70;99.90
13264;DHT22;6700;51.988;7.646;2023-12-28T04:23:48;8.70;99.90
13264;DHT22;6700;51.988;7.646;2023-12-28T04:26:18;8.70;99.90
13264;DHT22;6700;51.988;7.646;2023-12-28T04:28:45;8.70;99.90
13264;DHT22;6700;51.988;7.646;2023-12-28T04:31:12;8.70;99.90
13264;DHT22;6700;51.988;7.646;2023-12-28T04:33:39;8.70;99.90
13264;DHT22;6700;51.988;7.646;2023-12-28T04:36:06;8.80;99.90
13264;DHT22;6700;51.988;7.646;2023-12-28T04:38:33;8.80;99.90
13264;DHT22;6700;51.988;7.646;2023-12-28T04:41:00;8.90;99.90
13264;DHT22;6700;51.988;7.646;2023-12-28T04:43:27;9.00;99.90
13264;DHT22;6700;51.988;7.646;2023-12-28T04:45:54;9.00;99.90
13264;DHT22;6700;51.988;7.646;2023-12-28T04:48:21;9.00;99.90
13264;DHT22;6700;51.988;7.646;2023-12-28T04:50:53;9.00;99.90
13264;DHT22;6700;51.988;7.646;2023-12-28T04:53:20;9.00;99.90
13264;DHT22;6700;51.988;7.646;2023-12-28T04:55:46;9.10;99.90
13264;DHT22;6700;51.988;7.646;2023-12-28T04:58:14;9.10;99.90
13264;DHT22;6700;51.988;7.646;2023-12-28T05:00:41;9.10;99.90
13264;DHT22;6700;51.988;7.646;2023-12-28T05:03:08;9.10;99.90
13264;DHT22;6700;51.988;7.646;2023-12-28T05:05:35;9.00;99.90
13264;DHT22;6700;51.988;7.646;2023-12-28T05:08:02;9.10;99.90
13264;DHT22;6700;51.988;7.646;2023-12-28T05:10:29;9.00;99.90
13264;DHT22;6700;51.988;7.646;2023-12-28T05:12:56;9.00;99.90
13264;DHT22;6700;51.988;7.646;2023-12-28T05:15:25;9.00;99.90
13264;DHT22;6700;51.988;7.646;2023-12-28T05:17:52;9.00;99.90
13264;DHT22;6700;51.988;7.646;2023-12-28T05:20:19;9.00;99.90
13264;DHT22;6700;51.988;7.646;2023-12-28T05:22:46;9.00;99.90
13264;DHT22;6700;51.988;7.646;2023-12-28T05:25:14;9.00;99.90
13264;DHT22;6700;51.988;7.646;2023-12-28T05:27:41;9.00;99.90
13264;DHT22;6700;51.988;7.646;2023-12-28T05:30:09;9.00;99.90
13264;DHT22;6700;51.988;7.646;2023-12-28T05:32:37;9.00;99.90
13264;DHT22;6700;51.988;7.646;2023-12-28T05:35:05;9.00;99.90
13264;DHT22;6700;51.988;7.646;2023-12-28T05:37:32;9.00;99.90
13264;DHT22;6700;51.988;7.646;2023-12-28T05:39:59;9.00;99.90
13264;DHT22;6700;51.988;7.646;2023-12-28T05:42:26;9.20;99.90
13264;DHT22;6700;51.988;7.646;2023-12-28T05:44:54;9.20;99.90
13264;DHT22;6700;51.988;7.646;2023-12-28T05:47:21;9.20;99.90
13264;DHT22;6700;51.988;7.646;2023-12-28T05:49:47;9.20;99.90
13264;DHT22;6700;51.988;7.646;2023-12-28T05:52:15;9.30;99.90
13264;DHT22;6700;51.988;7.646;2023-12-28T05:54:45;9.30;99.90
13264;DHT22;6700;51.988;7.646;2023-12-28T05:57:12;9.40;99.90
13264;DHT22;6700;51.988;7.646;2023-12-28T05:59:39;9.40;99.90
13264;DHT22;6700;51.988;7.646;2023-12-28T06:02:08;9.40;99.90
13264;DHT22;6700;51.988;7.646;2023-12-28T06:04:36;9.50;99.90
13264;DHT22;6700;51.988;7.646;2023-12-28T06:07:05;9.50;99.90
13264;DHT22;6700;51.988;7.646;2023-12-28T06:09:32;9.40;99.90
13264;DHT22;6700;51.988;7.646;2023-12-28T06:12:01;9.50;99.90
13264;DHT22;6700;51.988;7.646;2023-12-28T06:14:27;9.50;99.90
13264;DHT22;6700;51.988;7.646;2023-12-28T06:16:54;9.60;99.90
13264;DHT22;6700;51.988;7.646;2023-12-28T06:19:22;9.50;99.90
13264;DHT22;6700;51.988;7.646;2023-12-28T06:21:49;9.60;99.90
13264;DHT22;6700;51.988;7.646;2023-12-28T06:24:17;9.60;99.90
13264;DHT22;6700;51.988;7.646;2023-12-28T06:26:44;9.50;99.90
13264;DHT22;6700;51.988;7.646;2023-12-28T06:29:12;9.50;99.90
13264;DHT22;6700;51.988;7.646;2023-12-28T06:31:40;9.50;99.90
13264;DHT22;6700;51.988;7.646;2023-12-28T06:34:07;9.60;99.90
13264;DHT22;6700;51.988;7.646;2023-12-28T06:36:35;9.70;99.90
13264;DHT22;6700;51.988;7.646;2023-12-28T06:39:02;9.70;99.90
13264;DHT22;6700;51.988;7.646;2023-12-28T06:41:31;9.70;99.90
13264;DHT22;6700;51.988;7.646;2023-12-28T06:43:57;9.60;99.90
13264;DHT22;6700;51.988;7.646;2023-12-28T06:46:24;9.60;99.90
13264;DHT22;6700;51.988;7.646;2023-12-28T06:48:51;9.60;99.90
13264;DHT22;6700;51.988;7.646;2023-12-28T06:51:19;9.70;99.90
13264;DHT22;6700;51.988;7.646;2023-12-28T06:53:47;9.70;99.90
13264;DHT22;6700;51.988;7.646;2023-12-28T06:56:14;9.70;99.90
13264;DHT22;6700;51.988;7.646;2023-12-28T06:58:41;9.70;99.90
13264;DHT22;6700;51.988;7.646;2023-12-28T07:01:08;9.80;99.90
13264;DHT22;6700;51.988;7.646;2023-12-28T07:03:36;9.80;99.90
13264;DHT22;6700;51.988;7.646;2023-12-28T07:06:03;9.90;99.90
13264;DHT22;6700;51.988;7.646;2023-12-28T07:08:30;9.80;99.90
13264;DHT22;6700;51.988;7.646;2023-12-28T07:11:01;9.80;99.90
13264;DHT22;6700;51.988;7.646;2023-12-28T07:13:29;9.90;99.90
13264;DHT22;6700;51.988;7.646;2023-12-28T07:15:56;9.80;99.90
13264;DHT22;6700;51.988;7.646;2023-12-28T07:18:26;9.80;99.90
13264;DHT22;6700;51.988;7.646;2023-12-28T07:20:53;9.80;99.90
13264;DHT22;6700;51.988;7.646;2023-12-28T07:23:20;9.80;99.90
13264;DHT22;6700;51.988;7.646;2023-12-28T07:25:48;9.80;99.90
13264;DHT22;6700;51.988;7.646;2023-12-28T07:28:15;9.80;99.90
13264;DHT22;6700;51.988;7.646;2023-12-28T07:30:42;9.80;99.90
13264;DHT22;6700;51.988;7.646;2023-12-28T07:33:09;9.80;99.90
13264;DHT22;6700;51.988;7.646;2023-12-28T07:35:36;9.70;99.90
13264;DHT22;6700;51.988;7.646;2023-12-28T07:38:03;9.70;99.90
13264;DHT22;6700;51.988;7.646;2023-12-28T07:40:30;9.70;99.90
13264;DHT22;6700;51.988;7.646;2023-12-28T07:42:57;9.70;99.90
13264;DHT22;6700;51.988;7.646;2023-12-28T07:45:24;9.80;99.90
13264;DHT22;6700;51.988;7.646;2023-12-28T07:47:51;9.70;99.90
13264;DHT22;6700;51.988;7.646;2023-12-28T07:50:19;9.80;99.90
13264;DHT22;6700;51.988;7.646;2023-12-28T07:52:48;9.80;99.90
13264;DHT22;6700;51.988;7.646;2023-12-28T07:55:18;9.80;99.90
13264;DHT22;6700;51.988;7.646;2023-12-28T07:57:45;9.80;99.90
13264;DHT22;6700;51.988;7.646;2023-12-28T08:00:13;9.90;99.90
13264;DHT22;6700;51.988;7.646;2023-12-28T08:02:40;9.90;99.90
13264;DHT22;6700;51.988;7.646;2023-12-28T08:05:07;9.90;99.90
13264;DHT22;6700;51.988;7.646;2023-12-28T08:07:37;9.90;99.90
13264;DHT22;6700;51.988;7.646;2023-12-28T08:10:05;9.90;99.90
13264;DHT22;6700;51.988;7.646;2023-12-28T08:12:33;9.90;99.90
13264;DHT22;6700;51.988;7.646;2023-12-28T08:14:59;9.90;99.90
13264;DHT22;6700;51.988;7.646;2023-12-28T08:17:26;9.90;99.90
13264;DHT22;6700;51.988;7.646;2023-12-28T08:19:53;9.90;99.90
13264;DHT22;6700;51.988;7.646;2023-12-28T08:22:21;9.90;99.90
13264;DHT22;6700;51.988;7.646;2023-12-28T08:24:48;10.00;99.90
13264;DHT22;6700;51.988;7.646;2023-12-28T08:27:15;10.00;99.90
13264;DHT22;6700;51.988;7.646;2023-12-28T08:29:42;9.90;99.90
13264;DHT22;6700;51.988;7.646;2023-12-28T08:32:09;10.00;99.90
13264;DHT22;6700;51.988;7.646;2023-12-28T08:34:37;10.00;99.90
13264;DHT22;6700;51.988;7.646;2023-12-28T08:37:04;9.90;99.90
13264;DHT22;6700;51.988;7.646;2023-12-28T08:39:32;9.90;99.90
13264;DHT22;6700;51.988;7.646;2023-12-28T08:41:59;9.90;99.90
13264;DHT22;6700;51.988;7.646;2023-12-28T08:44:26;10.00;99.90
13264;DHT22;6700;51.988;7.646;2023-12-28T08:46:54;10.00;99.90
13264;DHT22;6700;51.988;7.646;2023-12-28T08:49:21;10.00;99.90
13264;DHT22;6700;51.988;7.646;2023-12-28T08:51:50;10.10;99.90
13264;DHT22;6700;51.988;7.646;2023-12-28T08:54:17;10.10;99.90
13264;DHT22;6700;51.988;7.646;2023-12-28T08:56:44;10.10;99.90
13264;DHT22;6700;51.988;7.646;2023-12-28T08:59:15;10.10;99.90
13264;DHT22;6700;51.988;7.646;2023-12-28T09:01:41;10.20;99.90
13264;DHT22;6700;51.988;7.646;2023-12-28T09:04:08;10.20;99.90
13264;DHT22;6700;51.988;7.646;2023-12-28T09:06:35;10.20;99.90
13264;DHT22;6700;51.988;7.646;2023-12-28T09:09:02;10.20;99.90
13264;DHT22;6700;51.988;7.646;2023-12-28T09:11:30;10.20;99.90
13264;DHT22;6700;51.988;7.646;2023-12-28T09:13:57;10.20;99.90
13264;DHT22;6700;51.988;7.646;2023-12-28T09:16:23;10.20;99.90
13264;DHT22;6700;51.988;7.646;2023-12-28T09:18:50;10.20;99.90
13264;DHT22;6700;51.988;7.646;2023-12-28T09:21:17;10.20;99.90
13264;DHT22;6700;51.988;7.646;2023-12-28T09:23:44;10.20;99.90
13264;DHT22;6700;51.988;7.646;2023-12-28T09:26:11;10.30;99.90
13264;DHT22;6700;51.988;7.646;2023-12-28T09:28:37;10.30;99.90
13264;DHT22;6700;51.988;7.646;2023-12-28T09:31:04;10.30;99.90
13264;DHT22;6700;51.988;7.646;2023-12-28T09:33:31;10.30;99.90
13264;DHT22;6700;51.988;7.646;2023-12-28T09:35:58;10.40;99.90
13264;DHT22;6700;51.988;7.646;2023-12-28T09:38:25;10.40;99.90
13264;DHT22;6700;51.988;7.646;2023-12-28T09:40:54;10.50;99.90
13264;DHT22;6700;51.988;7.646;2023-12-28T09:43:26;10.60;99.90
13264;DHT22;6700;51.988;7.646;2023-12-28T09:45:53;10.70;99.90
13264;DHT22;6700;51.988;7.646;2023-12-28T09:48:21;10.80;99.90
13264;DHT22;6700;51.988;7.646;2023-12-28T09:50:54;10.90;99.90
13264;DHT22;6700;51.988;7.646;2023-12-28T09:53:23;10.90;99.90
13264;DHT22;6700;51.988;7.646;2023-12-28T09:55:50;11.00;99.90
13264;DHT22;6700;51.988;7.646;2023-12-28T09:58:21;10.90;99.90
13264;DHT22;6700;51.988;7.646;2023-12-28T10:00:49;11.00;99.90
13264;DHT22;6700;51.988;7.646;2023-12-28T10:03:17;11.00;99.90
13264;DHT22;6700;51.988;7.646;2023-12-28T10:05:46;10.90;99.90
13264;DHT22;6700;51.988;7.646;2023-12-28T10:08:16;10.80;99.90
13264;DHT22;6700;51.988;7.646;2023-12-28T10:10:44;10.80;99.90
13264;DHT22;6700;51.988;7.646;2023-12-28T10:13:18;10.80;99.90
13264;DHT22;6700;51.988;7.646;2023-12-28T10:15:46;10.70;99.90
13264;DHT22;6700;51.988;7.646;2023-12-28T10:18:13;10.80;99.90
13264;DHT22;6700;51.988;7.646;2023-12-28T10:20:41;10.70;99.90
13264;DHT22;6700;51.988;7.646;2023-12-28T10:23:07;10.70;99.90
13264;DHT22;6700;51.988;7.646;2023-12-28T10:25:37;10.80;99.90
13264;DHT22;6700;51.988;7.646;2023-12-28T10:28:05;10.70;99.90
13264;DHT22;6700;51.988;7.646;2023-12-28T10:30:33;10.80;99.90
13264;DHT22;6700;51.988;7.646;2023-12-28T10:33:01;10.80;99.90
13264;DHT22;6700;51.988;7.646;2023-12-28T10:35:51;10.80;99.90
13264;DHT22;6700;51.988;7.646;2023-12-28T10:38:19;10.80;99.90
13264;DHT22;6700;51.988;7.646;2023-12-28T10:40:46;10.90;99.90
13264;DHT22;6700;51.988;7.646;2023-12-28T10:43:16;10.90;99.90
13264;DHT22;6700;51.988;7.646;2023-12-28T10:45:47;10.80;99.90
13264;DHT22;6700;51.988;7.646;2023-12-28T10:48:20;10.90;99.90
13264;DHT22;6700;51.988;7.646;2023-12-28T10:50:52;10.90;99.90
13264;DHT22;6700;51.988;7.646;2023-12-28T10:53:49;10.90;99.90
13264;DHT22;6700;51.988;7.646;2023-12-28T10:56:42;11.00;99.90
13264;DHT22;6700;51.988;7.646;2023-12-28T10:59:29;11.10;99.90
13264;DHT22;6700;51.988;7.646;2023-12-28T11:02:01;11.10;99.90
13264;DHT22;6700;51.988;7.646;2023-12-28T11:04:50;11.20;99.90
13264;DHT22;6700;51.988;7.646;2023-12-28T11:07:21;11.30;99.90
13264;DHT22;6700;51.988;7.646;2023-12-28T11:09:48;11.20;99.90
13264;DHT22;6700;51.988;7.646;2023-12-28T11:12:16;11.30;99.90
13264;DHT22;6700;51.988;7.646;2023-12-28T11:14:47;11.20;99.90
13264;DHT22;6700;51.988;7.646;2023-12-28T11:17:16;11.20;99.90
13264;DHT22;6700;51.988;7.646;2023-12-28T11:19:44;11.20;99.90
13264;DHT22;6700;51.988;7.646;2023-12-28T11:22:11;11.30;99.90
13264;DHT22;6700;51.988;7.646;2023-12-28T11:24:38;11.30;99.90
13264;DHT22;6700;51.988;7.646;2023-12-28T11:27:05;11.30;99.90
13264;DHT22;6700;51.988;7.646;2023-12-28T11:29:36;11.20;99.90
13264;DHT22;6700;51.988;7.646;2023-12-28T11:32:04;11.30;99.90
13264;DHT22;6700;51.988;7.646;2023-12-28T11:34:31;11.20;99.90
13264;DHT22;6700;51.988;7.646;2023-12-28T11:37:02;11.20;99.90
13264;DHT22;6700;51.988;7.646;2023-12-28T11:39:31;11.10;99.90
13264;DHT22;6700;51.988;7.646;2023-12-28T11:42:01;11.10;99.90
13264;DHT22;6700;51.988;7.646;2023-12-28T11:44:30;11.10;99.90
13264;DHT22;6700;51.988;7.646;2023-12-28T11:46:57;11.00;99.90
13264;DHT22;6700;51.988;7.646;2023-12-28T11:49:27;11.00;99.90
13264;DHT22;6700;51.988;7.646;2023-12-28T11:51:56;11.00;99.90
13264;DHT22;6700;51.988;7.646;2023-12-28T11:54:24;11.00;99.90
13264;DHT22;6700;51.988;7.646;2023-12-28T11:56:51;10.90;99.90
13264;DHT22;6700;51.988;7.646;2023-12-28T11:59:21;11.00;99.90
13264;DHT22;6700;51.988;7.646;2023-12-28T12:01:51;11.00;99.90
13264;DHT22;6700;51.988;7.646;2023-12-28T12:04:18;11.00;99.90
13264;DHT22;6700;51.988;7.646;2023-12-28T12:06:45;11.00;99.90
13264;DHT22;6700;51.988;7.646;2023-12-28T12:09:18;11.10;99.90
13264;DHT22;6700;51.988;7.646;2023-12-28T12:11:49;11.00;99.90
13264;DHT22;6700;51.988;7.646;2023-12-28T12:14:15;11.00;99.90
13264;DHT22;6700;51.988;7.646;2023-12-28T12:16:42;11.00;99.90
13264;DHT22;6700;51.988;7.646;2023-12-28T12:19:08;11.00;99.90
13264;DHT22;6700;51.988;7.646;2023-12-28T12:21:36;11.00;99.90
13264;DHT22;6700;51.988;7.646;2023-12-28T12:24:03;11.00;99.90
13264;DHT22;6700;51.988;7.646;2023-12-28T12:26:29;11.00;99.90
13264;DHT22;6700;51.988;7.646;2023-12-28T12:28:57;11.10;99.90
13264;DHT22;6700;51.988;7.646;2023-12-28T12:31:24;11.00;99.90
13264;DHT22;6700;51.988;7.646;2023-12-28T12:33:52;11.00;99.90
13264;DHT22;6700;51.988;7.646;2023-12-28T12:36:20;11.00;99.90
13264;DHT22;6700;51.988;7.646;2023-12-28T12:38:49;11.00;99.90
13264;DHT22;6700;51.988;7.646;2023-12-28T12:41:16;11.00;99.90
13264;DHT22;6700;51.988;7.646;2023-12-28T12:43:44;11.00;99.90
13264;DHT22;6700;51.988;7.646;2023-12-28T12:46:11;11.00;99.90
13264;DHT22;6700;51.988;7.646;2023-12-28T12:48:38;11.00;99.90
13264;DHT22;6700;51.988;7.646;2023-12-28T12:51:08;11.10;99.90
13264;DHT22;6700;51.988;7.646;2023-12-28T12:53:35;11.10;99.90
13264;DHT22;6700;51.988;7.646;2023-12-28T12:56:03;11.10;99.90
13264;DHT22;6700;51.988;7.646;2023-12-28T12:58:31;11.10;99.90
13264;DHT22;6700;51.988;7.646;2023-12-28T13:01:02;11.10;99.90
13264;DHT22;6700;51.988;7.646;2023-12-28T13:03:29;11.10;99.90
13264;DHT22;6700;51.988;7.646;2023-12-28T13:05:57;11.10;99.90
13264;DHT22;6700;51.988;7.646;2023-12-28T13:08:24;11.10;99.90
13264;DHT22;6700;51.988;7.646;2023-12-28T13:10:52;11.10;99.90
13264;DHT22;6700;51.988;7.646;2023-12-28T13:13:19;11.00;99.90
13264;DHT22;6700;51.988;7.646;2023-12-28T13:15:45;11.00;99.90
13264;DHT22;6700;51.988;7.646;2023-12-28T13:18:12;11.00;99.90
13264;DHT22;6700;51.988;7.646;2023-12-28T13:20:39;11.00;99.90
13264;DHT22;6700;51.988;7.646;2023-12-28T13:23:06;11.00;99.90
13264;DHT22;6700;51.988;7.646;2023-12-28T13:25:34;11.00;99.90
13264;DHT22;6700;51.988;7.646;2023-12-28T13:28:03;11.00;99.90
13264;DHT22;6700;51.988;7.646;2023-12-28T13:30:30;11.00;99.90
13264;DHT22;6700;51.988;7.646;2023-12-28T13:32:57;11.00;99.90
13264;DHT22;6700;51.988;7.646;2023-12-28T13:35:25;11.00;99.90
13264;DHT22;6700;51.988;7.646;2023-12-28T13:37:51;11.00;99.90
13264;DHT22;6700;51.988;7.646;2023-12-28T13:40:18;11.00;99.90
13264;DHT22;6700;51.988;7.646;2023-12-28T13:42:46;11.00;99.90
13264;DHT22;6700;51.988;7.646;2023-12-28T13:45:12;10.90;99.90
13264;DHT22;6700;51.988;7.646;2023-12-28T13:47:39;10.90;99.90
13264;DHT22;6700;51.988;7.646;2023-12-28T13:50:06;11.00;99.90
13264;DHT22;6700;51.988;7.646;2023-12-28T13:52:34;11.00;99.90
13264;DHT22;6700;51.988;7.646;2023-12-28T13:55:01;10.90;99.90
13264;DHT22;6700;51.988;7.646;2023-12-28T13:57:28;10.90;99.90
13264;DHT22;6700;51.988;7.646;2023-12-28T13:59:55;10.90;99.90
13264;DHT22;6700;51.988;7.646;2023-12-28T14:02:26;10.90;99.90
13264;DHT22;6700;51.988;7.646;2023-12-28T14:04:53;10.80;99.90
13264;DHT22;6700;51.988;7.646;2023-12-28T14:07:23;10.80;99.90
13264;DHT22;6700;51.988;7.646;2023-12-28T14:09:51;10.80;99.90
13264;DHT22;6700;51.988;7.646;2023-12-28T14:12:18;10.80;99.90
13264;DHT22;6700;51.988;7.646;2023-12-28T14:14:44;10.80;99.90
13264;DHT22;6700;51.988;7.646;2023-12-28T14:17:11;10.80;99.90
13264;DHT22;6700;51.988;7.646;2023-12-28T14:19:38;10.70;99.90
13264;DHT22;6700;51.988;7.646;2023-12-28T14:22:05;10.70;99.90
13264;DHT22;6700;51.988;7.646;2023-12-28T14:24:32;10.80;99.90
13264;DHT22;6700;51.988;7.646;2023-12-28T14:26:58;10.80;99.90
13264;DHT22;6700;51.988;7.646;2023-12-28T14:29:26;10.80;99.90
13264;DHT22;6700;51.988;7.646;2023-12-28T14:31:53;10.70;99.90
13264;DHT22;6700;51.988;7.646;2023-12-28T14:34:20;10.70;99.90
13264;DHT22;6700;51.988;7.646;2023-12-28T14:36:47;10.70;99.90
13264;DHT22;6700;51.988;7.646;2023-12-28T14:39:16;10.80;99.90
13264;DHT22;6700;51.988;7.646;2023-12-28T14:41:47;10.70;99.90
13264;DHT22;6700;51.988;7.646;2023-12-28T14:44:13;10.60;99.90
13264;DHT22;6700;51.988;7.646;2023-12-28T14:46:40;10.70;99.90
13264;DHT22;6700;51.988;7.646;2023-12-28T14:49:07;10.60;99.90
13264;DHT22;6700;51.988;7.646;2023-12-28T14:51:34;10.60;99.90
13264;DHT22;6700;51.988;7.646;2023-12-28T14:54:01;10.60;99.90
13264;DHT22;6700;51.988;7.646;2023-12-28T14:56:28;10.50;99.90
13264;DHT22;6700;51.988;7.646;2023-12-28T14:59:10;10.50;99.90
13264;DHT22;6700;51.988;7.646;2023-12-28T15:01:37;10.50;99.90
13264;DHT22;6700;51.988;7.646;2023-12-28T15:04:03;10.60;99.90
13264;DHT22;6700;51.988;7.646;2023-12-28T15:06:30;10.50;99.90
13264;DHT22;6700;51.988;7.646;2023-12-28T15:08:57;10.50;99.90
13264;DHT22;6700;51.988;7.646;2023-12-28T15:11:24;10.50;99.90
13264;DHT22;6700;51.988;7.646;2023-12-28T15:14:10;10.50;99.90
13264;DHT22;6700;51.988;7.646;2023-12-28T15:16:37;10.50;99.90
13264;DHT22;6700;51.988;7.646;2023-12-28T15:19:05;10.50;99.90
13264;DHT22;6700;51.988;7.646;2023-12-28T15:21:32;10.50;99.90
13264;DHT22;6700;51.988;7.646;2023-12-28T15:24:01;10.50;99.90
13264;DHT22;6700;51.988;7.646;2023-12-28T15:26:29;10.60;99.90
13264;DHT22;6700;51.988;7.646;2023-12-28T15:28:56;10.50;99.90
13264;DHT22;6700;51.988;7.646;2023-12-28T15:31:22;10.60;99.90
13264;DHT22;6700;51.988;7.646;2023-12-28T15:33:49;10.50;99.90
13264;DHT22;6700;51.988;7.646;2023-12-28T15:36:16;10.50;99.90
13264;DHT22;6700;51.988;7.646;2023-12-28T15:38:43;10.50;99.90
13264;DHT22;6700;51.988;7.646;2023-12-28T15:41:10;10.50;99.90
13264;DHT22;6700;51.988;7.646;2023-12-28T15:43:36;10.50;99.90
13264;DHT22;6700;51.988;7.646;2023-12-28T15:46:03;10.50;99.90
13264;DHT22;6700;51.988;7.646;2023-12-28T15:48:30;10.50;99.90
13264;DHT22;6700;51.988;7.646;2023-12-28T15:50:56;10.50;99.90
13264;DHT22;6700;51.988;7.646;2023-12-28T15:53:23;10.50;99.90
13264;DHT22;6700;51.988;7.646;2023-12-28T15:55:50;10.50;99.90
13264;DHT22;6700;51.988;7.646;2023-12-28T15:58:33;10.50;99.90
13264;DHT22;6700;51.988;7.646;2023-12-28T16:01:00;10.40;99.90
13264;DHT22;6700;51.988;7.646;2023-12-28T16:03:27;10.40;99.90